createdAt,value
2023-04-15T00:04:40.282Z,7.39
2023-04-15T00:09:42.876Z,7.44
2023-04-15T00:14:44.954Z,7.82
2023-04-15T00:19:46.460Z,7.78
2023-04-15T00:24:47.931Z,8.00
2023-04-15T00:29:49.438Z,7.63
2023-04-15T00:34:51.091Z,7.74
2023-04-15T00:39:52.558Z,7.43
2023-04-15T00:44:54.119Z,7.46
2023-04-15T00:49:56.869Z,7.56
2023-04-15T00:54:58.611Z,7.43
2023-04-15T01:00:01.133Z,7.13
2023-04-15T01:05:04.320Z,7.49
2023-04-15T01:10:06.458Z,6.90
2023-04-15T01:15:09.416Z,7.10
2023-04-15T01:20:12.145Z,7.11
2023-04-15T01:25:19.472Z,6.82
2023-04-15T01:30:21.774Z,6.72
2023-04-15T01:35:23.967Z,6.82
2023-04-15T01:40:26.343Z,7.29
2023-04-15T01:45:28.701Z,7.17
2023-04-15T01:50:30.454Z,7.07
2023-04-15T01:55:32.531Z,6.65
2023-04-15T02:00:34.039Z,6.94
2023-04-15T02:05:35.896Z,7.06
2023-04-15T02:10:38.968Z,7.19
2023-04-15T02:15:40.438Z,6.98
2023-04-15T02:20:43.461Z,7.11
2023-04-15T02:25:53.304Z,7.04
2023-04-15T02:30:57.572Z,7.25
2023-04-15T02:35:59.352Z,7.14
2023-04-15T02:41:01.603Z,7.02
2023-04-15T02:46:04.243Z,6.85
2023-04-15T02:51:20.284Z,7.02
2023-04-15T02:56:23.266Z,6.95
2023-04-15T03:01:24.820Z,6.55
2023-04-15T03:06:26.341Z,6.75
2023-04-15T03:11:29.271Z,6.66
2023-04-15T03:16:30.932Z,6.71
2023-04-15T03:21:33.255Z,6.43
2023-04-15T03:26:34.898Z,6.66
2023-04-15T03:31:43.053Z,6.55
2023-04-15T03:36:44.571Z,6.50
2023-04-15T03:41:46.411Z,6.57
2023-04-15T03:46:48.013Z,6.53
2023-04-15T03:51:49.610Z,6.40
2023-04-15T03:56:51.076Z,6.33
2023-04-15T04:01:52.624Z,6.41
2023-04-15T04:06:54.106Z,6.39
2023-04-15T04:11:56.398Z,6.35
2023-04-15T04:16:57.902Z,6.31
2023-04-15T04:21:59.392Z,6.32
2023-04-15T04:27:00.979Z,6.33
2023-04-15T04:32:02.472Z,6.26
2023-04-15T04:37:03.964Z,6.22
2023-04-15T04:42:05.710Z,6.15
2023-04-15T04:47:07.707Z,6.36
2023-04-15T04:52:09.162Z,6.13
2023-04-15T04:57:10.860Z,6.18
2023-04-15T05:02:12.385Z,6.30
2023-04-15T05:07:13.875Z,6.15
2023-04-15T05:12:15.356Z,6.27
2023-04-15T05:17:16.822Z,6.38
2023-04-15T05:22:18.260Z,6.45
2023-04-15T05:27:19.722Z,6.53
2023-04-15T05:32:21.314Z,6.69
2023-04-15T05:37:22.777Z,6.66
2023-04-15T05:42:24.259Z,6.79
2023-04-15T05:47:25.725Z,6.83
2023-04-15T05:52:27.355Z,6.95
2023-04-15T05:57:28.791Z,6.94
2023-04-15T06:02:30.679Z,7.14
2023-04-15T06:07:32.288Z,7.23
2023-04-15T06:12:33.785Z,7.21
2023-04-15T06:17:35.294Z,7.33
2023-04-15T06:22:37.411Z,7.63
2023-04-15T06:27:38.947Z,7.71
2023-04-15T06:32:40.520Z,7.60
2023-04-15T06:37:42.058Z,7.73
2023-04-15T06:42:43.551Z,7.87
2023-04-15T06:47:45.013Z,8.20
2023-04-15T06:52:46.541Z,8.95
2023-04-15T06:57:48.027Z,8.87
2023-04-15T07:02:49.556Z,9.21
2023-04-15T07:07:51.430Z,9.13
2023-04-15T07:12:52.907Z,9.27
2023-04-15T07:17:54.502Z,9.82
2023-04-15T07:22:56.142Z,10.18
2023-04-15T07:27:57.718Z,10.21
2023-04-15T07:32:59.408Z,10.81
2023-04-15T07:38:00.921Z,10.35
2023-04-15T07:43:02.389Z,10.15
2023-04-15T07:48:04.186Z,10.67
2023-04-15T07:53:06.494Z,10.39
2023-04-15T07:58:07.990Z,10.70
2023-04-15T08:03:09.766Z,10.69
2023-04-15T08:08:11.390Z,10.18
2023-04-15T08:13:13.038Z,10.13
2023-04-15T08:18:14.741Z,10.01
2023-04-15T08:23:16.768Z,10.46
2023-04-15T08:28:18.231Z,10.55
2023-04-15T08:33:19.743Z,10.54
2023-04-15T08:38:21.209Z,11.08
2023-04-15T08:43:26.449Z,11.34
2023-04-15T08:48:33.436Z,10.99
2023-04-15T08:53:35.465Z,11.57
2023-04-15T08:58:38.063Z,11.25
2023-04-15T09:03:40.223Z,11.31
2023-04-15T09:08:42.229Z,12.01
2023-04-15T09:13:44.118Z,11.84
2023-04-15T09:18:45.659Z,11.86
2023-04-15T09:23:59.239Z,11.37
2023-04-15T09:29:08.137Z,11.45
2023-04-15T09:34:10.147Z,11.64
2023-04-15T09:39:11.630Z,10.99
2023-04-15T09:44:23.740Z,11.17
2023-04-15T09:49:25.297Z,11.64
2023-04-15T09:54:37.954Z,12.41
2023-04-15T09:59:39.629Z,11.47
2023-04-15T10:04:42.057Z,11.85
2023-04-15T10:09:46.001Z,12.10
2023-04-15T10:14:59.411Z,11.69
2023-04-15T10:20:02.908Z,11.32
2023-04-15T10:25:06.278Z,11.46
2023-04-15T10:30:09.658Z,11.23
2023-04-15T10:35:11.930Z,11.59
2023-04-15T10:40:23.827Z,11.25
2023-04-15T10:45:28.018Z,11.24
2023-04-15T10:50:32.631Z,11.71
2023-04-15T10:55:34.795Z,11.59
2023-04-15T11:00:39.523Z,12.04
2023-04-15T11:05:53.972Z,11.79
2023-04-15T11:10:55.499Z,11.61
2023-04-15T11:15:58.460Z,11.97
2023-04-15T11:21:04.821Z,12.52
2023-04-15T11:26:12.449Z,12.14
2023-04-15T11:31:16.395Z,12.28
2023-04-15T11:36:17.985Z,11.83
2023-04-15T11:41:23.720Z,12.22
2023-04-15T11:46:31.976Z,11.87
2023-04-15T11:51:35.407Z,11.78
2023-04-15T11:56:36.872Z,12.28
2023-04-15T12:01:39.853Z,12.12
2023-04-15T12:06:41.619Z,11.61
2023-04-15T12:11:47.435Z,11.37
2023-04-15T12:16:54.193Z,11.27
2023-04-15T12:22:10.066Z,11.55
2023-04-15T12:27:12.962Z,11.69
2023-04-15T12:32:16.282Z,11.84
2023-04-15T12:37:18.360Z,11.52
2023-04-15T12:42:20.335Z,11.53
2023-04-15T12:47:21.797Z,11.51
2023-04-15T12:52:24.438Z,11.67
2023-04-15T12:57:25.937Z,11.46
2023-04-15T13:02:28.922Z,11.43
2023-04-15T13:07:30.531Z,11.88
2023-04-15T13:12:32.984Z,11.56
2023-04-15T13:17:34.528Z,11.61
2023-04-15T13:22:36.091Z,12.13
2023-04-15T13:27:37.570Z,12.12
2023-04-15T13:32:39.050Z,11.53
2023-04-15T13:37:42.082Z,12.12
2023-04-15T13:42:43.554Z,11.53
2023-04-15T13:47:45.265Z,11.26
2023-04-15T13:52:46.768Z,11.16
2023-04-15T13:57:48.308Z,11.57
2023-04-15T14:02:49.893Z,11.36
2023-04-15T14:07:51.635Z,11.19
2023-04-15T14:12:53.210Z,11.42
2023-04-15T14:17:55.450Z,11.14
2023-04-15T14:22:56.939Z,10.97
2023-04-15T14:27:58.452Z,10.85
2023-04-15T14:33:00.043Z,11.09
2023-04-15T14:38:01.527Z,11.18
2023-04-15T14:43:03.440Z,11.01
2023-04-15T14:48:06.533Z,11.07
2023-04-15T14:53:09.433Z,10.93
2023-04-15T14:58:11.278Z,10.73
2023-04-15T15:03:13.241Z,10.91
2023-04-15T15:08:14.771Z,10.84
2023-04-15T15:13:16.872Z,10.94
2023-04-15T15:18:19.584Z,10.97
2023-04-15T15:23:21.190Z,10.56
2023-04-15T15:28:23.311Z,10.65
2023-04-15T15:33:24.781Z,10.55
2023-04-15T15:38:26.362Z,10.79
2023-04-15T15:43:27.949Z,10.57
2023-04-15T15:48:29.589Z,10.40
2023-04-15T15:53:31.126Z,10.41
2023-04-15T15:58:32.579Z,10.22
2023-04-15T16:03:34.227Z,10.21
2023-04-15T16:08:35.808Z,10.16
2023-04-15T16:13:37.355Z,10.34
2023-04-15T16:18:38.806Z,10.28
2023-04-15T16:23:40.571Z,10.06
2023-04-15T16:28:42.201Z,10.09
2023-04-15T16:33:43.695Z,10.22
2023-04-15T16:38:48.714Z,10.15
2023-04-15T16:43:50.187Z,10.05
2023-04-15T16:48:51.654Z,9.64
2023-04-15T16:53:53.099Z,9.77
2023-04-15T16:58:54.577Z,9.84
2023-04-15T17:03:56.421Z,9.81
2023-04-15T17:08:57.989Z,9.67
2023-04-15T17:13:59.469Z,9.49
2023-04-15T17:19:00.945Z,9.66
2023-04-15T17:24:02.391Z,9.53
2023-04-15T17:29:04.118Z,9.40
2023-04-15T17:34:09.802Z,9.41
2023-04-15T17:39:14.423Z,9.60
2023-04-15T17:44:15.934Z,9.41
2023-04-15T17:49:17.421Z,9.38
2023-04-15T17:54:18.882Z,9.44
2023-04-15T17:59:20.684Z,9.47
2023-04-15T18:04:24.784Z,9.32
2023-04-15T18:09:27.904Z,9.50
2023-04-15T18:14:34.768Z,9.34
2023-04-15T18:19:36.553Z,9.50
2023-04-15T18:24:38.072Z,9.24
2023-04-15T18:29:39.537Z,9.19
2023-04-15T18:34:42.894Z,9.31
2023-04-15T18:39:44.393Z,9.48
2023-04-15T18:44:45.842Z,9.52
2023-04-15T18:49:47.375Z,9.31
2023-04-15T18:54:49.152Z,9.25
2023-04-15T18:59:50.669Z,9.30
2023-04-15T19:04:52.142Z,9.30
2023-04-15T19:09:53.600Z,9.10
2023-04-15T19:14:55.047Z,9.27
2023-04-15T19:19:56.537Z,9.10
2023-04-15T19:24:58.010Z,8.99
2023-04-15T19:29:59.536Z,9.11
2023-04-15T19:35:01.030Z,9.01
2023-04-15T19:40:02.531Z,9.29
2023-04-15T19:45:04.285Z,9.07
2023-04-15T19:50:07.268Z,9.18
2023-04-15T19:55:08.968Z,9.19
2023-04-15T20:00:10.910Z,8.94
2023-04-15T20:05:13.748Z,9.05
2023-04-15T20:10:15.243Z,9.11
2023-04-15T20:15:19.675Z,8.89
2023-04-15T20:20:22.127Z,9.01
2023-04-15T20:25:23.728Z,8.94
2023-04-15T20:30:25.408Z,8.88
2023-04-15T20:35:30.702Z,8.94
2023-04-15T20:40:33.679Z,9.02
2023-04-15T20:45:35.157Z,9.11
2023-04-15T20:50:36.835Z,8.89
2023-04-15T20:55:38.284Z,9.02
2023-04-15T21:00:39.935Z,8.81
2023-04-15T21:05:41.475Z,8.91
2023-04-15T21:10:42.963Z,8.89
2023-04-15T21:15:45.450Z,9.00
2023-04-15T21:20:46.909Z,8.98
2023-04-15T21:25:48.355Z,9.15
2023-04-15T21:30:50.082Z,9.00
2023-04-15T21:35:52.468Z,8.89
2023-04-15T21:40:54.139Z,9.08
2023-04-15T21:46:23.647Z,9.20
2023-04-15T21:51:17.067Z,9.26
2023-04-15T21:56:20.519Z,9.04
2023-04-15T22:01:22.268Z,9.09
2023-04-15T22:06:23.740Z,9.29
2023-04-15T22:11:30.375Z,9.44
2023-04-15T22:16:31.909Z,9.47
2023-04-15T22:21:33.363Z,9.38
2023-04-15T22:26:34.846Z,9.30
2023-04-15T22:31:36.777Z,9.27
2023-04-15T22:36:38.296Z,9.35
2023-04-15T22:41:39.798Z,9.27
2023-04-15T22:46:41.494Z,9.50
2023-04-15T22:51:43.597Z,9.56
2023-04-15T22:56:45.061Z,9.42
2023-04-15T23:01:46.540Z,9.61
2023-04-15T23:06:48.002Z,9.26
2023-04-15T23:11:49.510Z,9.29
2023-04-15T23:16:51.059Z,9.30
2023-04-15T23:21:53.455Z,9.44
2023-04-15T23:26:55.255Z,9.55
2023-04-15T23:31:57.309Z,9.64
2023-04-15T23:36:58.939Z,9.72
2023-04-15T23:42:00.534Z,9.68
2023-04-15T23:47:02.028Z,9.73
2023-04-15T23:52:03.776Z,9.74
2023-04-15T23:57:05.282Z,9.82
